Weather observations for the past three days for
Inverness Airport
Metric (Imperial)
Date Time (edt) Wind (kph) Vis. (km) Weather Sky Cond. Temperature (ºC) Relative Humidity Wind Chill (°C) Heat Index (°C) Pressure Precipitation (cm)
Air Dwpt 6 hour altimeter (cm) sea level (mb) 1 hr 3 hr 6 hr
Max. Min.
04 23:35 Calm 11.27 Partly Cloudy SCT075 20 16 78% 76.28 0.0
04 23:15 Calm 11.27 Mostly Cloudy SCT060 BKN075 20 16 78% 76.3 0.0
04 22:55 E 6 8.05 Mostly Cloudy with Haze SCT060 BKN075 21 16 73% 76.28 0.0
04 22:35 Calm 11.27 Fair CLR 21 16 73% 76.3 0.0
04 22:15 Calm 11.27 Fair CLR 21 16 73% 76.28 0.0
04 21:55 Calm 8.05 Fair with Haze CLR 21 16 73% 76.25 0.0
04 21:35 E 6 11.27 Partly Cloudy SCT075 22 16 69% 76.23 0.0
04 21:15 SE 7 11.27 Partly Cloudy SCT075 22 16 69% 76.2 0.0
04 20:55 SE 7 11.27 Fair CLR 22 15 65% 76.17 0.0
04 20:35 SE 7 11.27 Fair CLR 23 15 61% 76.15 0.0
04 20:15 E 6 11.27 Fair CLR 23 16 65% 76.15 0.0
04 19:55 E 6 8.05 Fair with Haze CLR 24 15 57% 25 76.12 0.0
04 19:35 E 7 8.05 Fair with Haze CLR 25 15 54% 26 76.1 0.0
04 19:15 E 11 8.05 Fair with Haze CLR 26 15 51% 27 76.1 0.0
04 18:55 E 17 8.05 Partly Cloudy with Haze SCT070 SCT080 27 14 45% 27 76.1 0.0
04 18:35 E 13 11.27 Partly Cloudy SCT080 28 13 40% 28 76.1 0.0
04 18:15 E 11 11.27 Partly Cloudy SCT080 28 12 37% 27 76.1 0.0
04 17:35 SE 9 11.27 Partly Cloudy SCT070 28 12 37% 27 76.1 0.0
04 17:15 E 11 11.27 Mostly Cloudy BKN070 28 12 37% 27 76.1 0.0
04 16:55 E 11 8.05 Partly Cloudy with Haze SCT070 28 12 37% 27 76.12 0.0
04 16:35 S 11 11.27 Fair CLR 28 11 35% 27 76.12 0.0
04 16:15 SE 6 11.27 Fair CLR 28 10 32% 27 76.15 0.0
04 15:55 Calm 8.05 Fair with Haze CLR 28 8 28% 27 76.15 0.0
04 15:35 E 13 8.05 Fair with Haze CLR 28 10 32% 27 76.17 0.0
04 15:15 SE 9 11.27 Fair CLR 28 10 32% 27 76.2 0.0
04 14:55 E 13 8.05 Fair with Haze CLR 28 10 32% 27 76.23 0.0
04 14:35 SE 15 11.27 Fair CLR 28 10 32% 27 76.25 0.0
04 14:15 E 13 8.05 Fair with Haze CLR 28 11 35% 27 76.28 0.0
04 13:55 NE 6 11.27 Fair CLR 27 11 37% 27 76.28 0.0
04 13:35 SE 7 11.27 Fair CLR 27 11 37% 27 76.3 0.0
04 13:15 N 11 11.27 Fair CLR 27 11 37% 27 76.3 0.0
04 12:55 N 9 8.05 Fair with Haze CLR 26 11 39% 26 76.33 0.0
04 12:35 S 6 8.05 Partly Cloudy with Haze SCT060 26 12 42% 26 76.35 0.0
04 12:15 E 11 11.27 Fair CLR 26 13 45% 26 76.38 0.0
04 11:55 NE 11 11.27 Fair CLR 26 13 45% 26 76.38 0.0
04 11:35 E 11 8.05 Fair with Haze CLR 25 13 47% 26 76.38 0.0
04 11:15 NE 11 8.05 Fair with Haze CLR 25 12 44% 26 76.38 0.0
04 10:55 NE 11 G 26 11.27 Fair CLR 25 13 47% 26 76.38 0.0
04 10:35 E 13 11.27 Fair CLR 24 15 57% 25 76.4 0.0
04 10:15 E 17 8.05 Fair with Haze CLR 23 15 61% 76.4 0.0
04 09:55 NE 13 11.27 Fair CLR 22 16 69% 76.4 0.0
04 09:35 NE 13 8.05 Fair with Haze CLR 22 16 69% 76.38 0.0
04 09:15 NE 15 11.27 Fair CLR 21 16 73% 76.35 0.0
04 08:55 NE 11 6.44 Fair with Haze CLR 20 16 78% 76.35 0.0
04 08:35 NE 13 11.27 Fair CLR 19 16 83% 76.35 0.0
04 08:15 NE 11 8.05 Fog/Mist CLR 18 16 88% 76.35 0.0
04 07:55 NE 7 11.27 Fair CLR 17 16 94% 76.35 0.0
04 07:35 NE 7 11.27 Fair CLR 16 16 100% 76.33 0.0
04 07:15 NE 7 8.05 Fog/Mist CLR 15 15 100% 76.33 0.0
04 06:55 N 6 11.27 Fair CLR 15 15 100% 76.3 0.0
04 06:35 N 7 11.27 Fair CLR 15 15 100% 76.3 0.0
04 06:15 N 6 11.27 Fair CLR 15 15 100% 76.28 0.0
04 05:55 N 6 16.09 Fair CLR 15 15 100% 76.3 0.0
04 05:35 N 6 11.27 Fair CLR 16 15 94% 76.3 0.0
04 05:15 N 6 11.27 Fair CLR 15 15 100% 76.28 0.0
04 04:55 N 6 11.27 Fair CLR 16 15 94% 76.3 0.0
04 04:35 Calm 11.27 Fair CLR 16 15 94% 76.3 0.0
04 04:15 Calm 11.27 Fair CLR 16 15 94% 76.28 0.0
04 03:55 N 7 11.27 Fair CLR 16 16 100% 76.3 0.0
04 03:35 N 9 11.27 Fair CLR 16 15 94% 76.3 0.0
04 03:15 N 7 11.27 Fair CLR 16 16 100% 76.3 0.0
04 02:55 N 9 11.27 Fair CLR 16 15 94% 76.33 0.0
04 02:35 N 6 16.09 Fair CLR 17 15 88% 76.33 0.0
04 02:15 N 7 11.27 Fair CLR 16 15 94% 76.33 0.0
04 01:55 N 9 11.27 Fair CLR 17 15 88% 76.33 0.0
04 01:35 N 7 11.27 Fair CLR 17 15 88% 76.35 0.0
04 01:15 N 7 11.27 Fair CLR 17 15 88% 76.35 0.0
04 00:55 Calm 11.27 Fair CLR 17 15 88% 76.38 0.0
04 00:35 N 6 11.27 Fair CLR 17 15 88% 76.4 0.0
04 00:15 N 6 11.27 Fair CLR 17 15 88% 76.4 0.0
03 23:55 Calm 11.27 Fair CLR 18 15 83% 76.4 0.0
03 23:35 Calm 11.27 Fair CLR 18 15 83% 76.4 0.0
03 23:15 Calm 11.27 Fair CLR 19 14 73% 76.4 0.0
03 22:55 Calm 16.09 Fair CLR 19 14 73% 76.38 0.0
03 22:35 Calm 8.05 Fair with Haze CLR 20 14 69% 76.35 0.0
03 22:15 NE 7 11.27 Partly Cloudy SCT070 20 13 64% 76.35 0.0
03 21:55 NE 7 11.27 Partly Cloudy SCT070 21 13 60% 76.35 0.0
03 21:35 E 9 11.27 Mostly Cloudy BKN070 21 13 60% 76.33 0.0
03 21:15 NE 7 11.27 Partly Cloudy SCT070 21 13 60% 76.28 0.0
03 20:55 E 7 11.27 Fair CLR 22 13 57% 76.25 0.0
03 20:35 NE 9 11.27 Partly Cloudy SCT070 22 13 57% 76.25 0.0
03 20:15 NE 11 6.44 Partly Cloudy with Haze SCT070 23 14 57% 76.25 0.0
03 19:55 E 6 8.05 Partly Cloudy with Haze SCT070 23 14 57% 76.25 0.0
03 19:35 E 6 11.27 Fair CLR 23 14 57% 76.23 0.0
03 19:15 E 7 8.05 Partly Cloudy with Haze SCT060 25 14 51% 26 76.23 0.0
03 18:55 E 9 8.05 Mostly Cloudy with Haze BKN060 25 14 51% 26 76.2 0.0
03 18:35 E 13 11.27 Mostly Cloudy BKN060 26 13 45% 26 76.2 0.0
03 18:15 SE 17 11.27 Partly Cloudy SCT060 26 14 48% 26 76.23 0.0
03 17:55 NE 6 8.05 Partly Cloudy with Haze SCT060 26 13 45% 26 76.23 0.0
03 17:35 E 9 11.27 Partly Cloudy SCT060 26 13 45% 26 76.23 0.0
03 17:15 SE 11 11.27 Partly Cloudy SCT060 27 13 42% 27 76.2 0.0
03 16:55 SE 7 8.05 Partly Cloudy with Haze SCT060 26 13 45% 26 76.23 0.0
03 16:35 NE 7 11.27 Partly Cloudy SCT060 26 13 45% 26 76.23 0.0
03 16:15 NE 11 8.05 Partly Cloudy with Haze SCT055 26 13 45% 26 76.25 0.0
03 15:55 E 9 11.27 Partly Cloudy SCT055 25 13 47% 26 76.28 0.0
03 15:35 E 9 11.27 Partly Cloudy SCT049 26 14 48% 26 76.28 0.0
03 14:55 E 15 11.27 Partly Cloudy SCT049 25 14 51% 26 76.35 0.0
03 14:35 E 9 6.44 Mostly Cloudy with Haze BKN049 25 13 47% 26 76.38 0.0
03 14:15 NE 13 11.27 Mostly Cloudy BKN047 25 15 54% 26 76.38 0.0
03 13:55 E 15 11.27 Mostly Cloudy BKN045 24 15 57% 25 76.4 0.0
03 13:35 NE 17 8.05 Partly Cloudy with Haze SCT042 SCT049 25 15 54% 26 76.4 0.0
03 13:15 NE 13 11.27 Mostly Cloudy BKN040 25 15 54% 26 76.43 0.0
03 12:55 NE 15 16.09 Mostly Cloudy BKN038 23 15 61% 76.43 0.0
03 12:35 NE 11 11.27 Partly Cloudy SCT038 23 15 61% 76.45 0.0
03 12:15 E 17 8.05 Partly Cloudy with Haze SCT036 23 15 61% 76.48 0.0
03 11:55 E 13 11.27 Partly Cloudy SCT036 23 15 61% 76.48 0.0
03 11:35 NE 13 11.27 Fair CLR 22 15 65% 76.48 0.0
03 11:15 NE 13 16.09 Fair CLR 21 15 69% 76.48 0.0
03 10:55 NE 19 11.27 Fair CLR 22 15 65% 76.45 0.0
03 10:35 NE 15 11.27 Partly Cloudy SCT026 21 15 69% 76.43 0.0
03 10:15 N 19 G 28 11.27 Fair CLR 21 16 73% 76.43 0.0
03 09:55 N 19 8.05 Fair with Haze CLR 19 16 83% 76.43 0.0
03 09:35 N 15 8.05 Fog/Mist SCT012 18 16 88% 76.43 0.0
03 09:15 N 11 11.27 Partly Cloudy SCT008 17 17 100% 76.43 0.0
03 08:55 N 11 8.05 Fog/Mist SCT006 BKN011 16 16 100% 76.4 0.0
03 08:35 N 13 11.27 Mostly Cloudy BKN004 16 16 100% 76.4 0.0
03 08:15 N 11 8.05 Fog/Mist OVC004 15 15 100% 76.38 0.0
03 07:55 N 11 8.05 Fog/Mist OVC004 15 15 100% 76.38 0.0
03 07:35 N 6 11.27 Overcast OVC004 15 15 100% 76.38 0.0
03 07:15 N 6 8.05 Fog/Mist OVC004 14 14 100% 76.35 0.0
03 06:55 N 13 8.05 Fog/Mist OVC004 15 15 100% 76.3 0.0
03 06:35 N 11 11.27 Overcast BKN004 OVC070 15 15 100% 76.33 0.0
03 06:15 N 13 16.09 Overcast OVC006 15 15 100% 76.28 0.0
03 05:55 N 11 11.27 Mostly Cloudy BKN006 15 15 100% 76.28 0.0
03 05:35 N 13 16.09 Mostly Cloudy BKN006 15 15 100% 76.28 0.0
03 05:15 N 11 11.27 Partly Cloudy SCT006 15 15 100% 76.25 0.0
03 04:55 N 7 11.27 Partly Cloudy SCT007 15 15 100% 76.25 0.0
03 04:35 N 7 11.27 Mostly Cloudy BKN007 15 15 100% 76.23 0.0
03 04:15 N 7 11.27 Partly Cloudy SCT007 15 15 100% 76.25 0.0
03 03:55 N 7 11.27 Fair CLR 15 15 100% 76.23 0.0
03 03:35 N 13 11.27 Fair CLR 16 16 100% 76.2 0.0
03 03:15 N 13 11.27 Fair CLR 16 16 100% 76.23 0.0
03 02:55 N 15 11.27 Fair CLR 16 16 100% 76.23 0.0
03 02:35 N 7 11.27 Fair CLR 16 16 100% 76.25 0.0
03 02:15 N 11 11.27 Fair CLR 16 16 100% 76.23 0.0
03 01:55 N 13 11.27 Partly Cloudy SCT012 16 16 100% 76.23 0.0
03 01:35 N 9 11.27 Partly Cloudy SCT012 16 16 100% 76.25 0.0
03 01:15 N 15 11.27 Partly Cloudy SCT012 17 17 100% 76.23 0.0
03 00:55 N 9 11.27 Mostly Cloudy SCT012 BKN049 17 17 100% 76.23 0.0
03 00:35 N 15 16.09 Overcast SCT012 OVC049 17 17 100% 76.2 0.0
03 00:15 N 13 11.27 Overcast OVC012 17 17 100% 76.17 0.0
02 23:55 N 11 11.27 Overcast BKN012 OVC035 18 18 100% 76.15 0.0
02 23:35 N 13 11.27 Overcast SCT012 OVC033 18 18 100% 76.15 0.0
02 23:15 N 15 11.27 Overcast OVC031 18 18 100% 76.12 0.0
02 22:55 N 15 G 28 11.27 Overcast SCT011 BKN031 OVC041 18 18 100% 76.12 0.0
02 22:35 N 22 16.09 Overcast OVC011 18 18 100% 76.07 0.0
02 22:15 N 19 11.27 Overcast OVC013 19 19 100% 76.07 0.0
02 21:55 N 19 G 30 11.27 Overcast BKN017 BKN023 OVC029 21 21 100% 76.02 0.0
02 21:35 N 15 11.27 Overcast BKN017 OVC025 21 21 100% 75.97 0.0
02 21:15 N 13 8.05 Fog/Mist SCT017 BKN027 OVC045 21 21 100% 75.92 0.0
02 20:55 Calm 8.05 Fog/Mist OVC045 22 22 100% 75.9 0.0
02 20:35 Calm 8.05 Fog/Mist OVC045 22 22 100% 75.9 0.0
02 20:15 Calm 6.44 Fog/Mist OVC045 22 22 100% 75.9 0.0
02 19:55 S 6 6.44 Fog/Mist SCT006 SCT012 OVC045 22 22 100% 75.84 0.0
02 19:35 SW 6 6.44 Fog/Mist SCT008 SCT012 BKN043 22 22 100% 75.84 0.0
02 19:15 S 6 8.05 Fog/Mist SCT006 SCT012 BKN045 22 22 100% 75.82 0.0
02 18:55 S 6 6.44 Fog/Mist BKN006 BKN012 22 22 100% 75.82 0.0
02 18:35 S 9 6.44 Fog/Mist OVC006 22 22 100% 75.82 0.0
02 18:15 S 13 6.44 Fog/Mist OVC006 22 22 100% 75.82 0.0
02 17:55 S 7 6.44 Fog/Mist OVC006 21 21 100% 75.77 0.0
02 17:35 S 7 6.44 Fog/Mist BKN006 BKN010 BKN014 21 21 100% 75.74 0.0
02 17:15 S 11 6.44 Fog/Mist BKN006 BKN010 OVC037 22 22 100% 75.77 0.0
02 16:55 S 6 8.05 Light Drizzle BKN006 BKN011 OVC021 22 22 100% 75.77 0.0
02 16:35 S 9 6.44 Fog/Mist BKN006 OVC011 21 21 100% 75.79 0.0
02 16:15 S 11 8.05 Fog/Mist BKN006 BKN031 21 21 100% 75.79 0.0
02 15:55 Calm 8.05 Light Rain SCT006 SCT017 BKN085 20 20 100% 75.74 0.0 0.18
02 15:35 S 6 6.44 Thunderstorm Heavy Rain SCT017 BKN070 OVC095 20 20 100% 75.82 0.0 0.15
02 15:15 S 6 8.05 Thunderstorm Rain OVC095 20 20 100% 75.87 0.0 0.05
02 14:55 S 9 11.27 Thunderstorm Rain in Vicinity SCT018 SCT065 OVC100 20 20 100% 75.92 0.0 0.3
02 14:35 S 11 16.09 Thunderstorm Light Rain in Vicinity SCT065 OVC110 20 20 100% 75.92 0.0 0.25
02 14:15 SW 13 6.44 Thunderstorm Rain SCT013 BKN065 OVC100 20 20 100% 75.92 0.0 0.23
02 13:55 SW 17 G 30 0.80 Thunderstorm Heavy Rain NULL 20 20 100% 75.95 0.0 0.66
02 13:35 NW 24 G 43 6.44 Mostly Cloudy with Haze SCT030 BKN049 BKN100 27 22 74% 29 75.9 0.0
02 13:15 SW 17 G 28 8.05 Partly Cloudy with Haze SCT032 SCT040 28 22 70% 31 75.87 0.0
02 12:55 SW 13 G 39 11.27 Partly Cloudy SCT034 29 22 66% 32 75.84 0.0
02 12:35 S 13 G 35 8.05 Partly Cloudy with Haze SCT036 SCT110 30 22 62% 33 75.87 0.0
02 12:15 SW 20 G 43 8.05 Partly Cloudy with Haze SCT036 30 22 62% 33 75.87 0.0
02 11:55 SW 22 G 39 8.05 Partly Cloudy with Haze SCT036 SCT043 28 22 70% 31 75.84 0.0
02 11:35 SW 20 G 31 11.27 Mostly Cloudy BKN038 BKN045 BKN055 30 22 62% 33 75.84 0.0
02 11:15 S 22 G 35 11.27 Mostly Cloudy BKN040 BKN049 BKN065 28 21 66% 30 75.84 0.0
02 10:55 SW 17 G 26 8.05 Partly Cloudy with Haze SCT040 SCT050 28 21 66% 30 75.84 0.0
02 10:35 SW 7 8.05 Partly Cloudy with Haze SCT040 28 22 70% 31 75.84 0.0
02 10:15 S 13 G 26 8.05 Fair with Haze CLR 26 22 79% 28 75.82 0.0
02 09:55 S 13 8.05 Fog/Mist CLR 25 23 89% 26 75.87 0.0
02 09:35 S 11 11.27 Partly Cloudy SCT055 25 23 89% 26 75.84 0.0
02 09:15 S 9 8.05 Fog/Mist SCT055 24 24 100% 23 75.84 0.0
02 08:55 S 9 8.05 Fog/Mist CLR 23 23 100% 75.82 0.0
02 08:35 S 9 6.44 Fog/Mist CLR 22 22 100% 75.79 0.0
02 08:15 S 11 6.44 Fog/Mist SCT055 22 22 100% 75.77 0.0
02 07:55 S 7 6.44 Fog/Mist OVC055 21 21 100% 75.77 0.0
02 07:35 Calm 6.44 Fog/Mist OVC065 20 20 100% 75.77 0.0
02 07:15 Calm 6.44 Fog/Mist OVC065 20 20 100% 75.77 0.0
02 06:55 S 6 6.44 Fog/Mist BKN065 20 20 100% 75.77 0.0
02 06:35 S 7 8.05 Fog/Mist CLR 20 20 100% 75.74 0.0
02 06:15 Calm 6.44 Fog/Mist CLR 20 20 100% 75.72 0.0
02 05:55 S 6 8.05 Fog/Mist CLR 19 19 100% 75.72 0.0
02 05:35 S 6 8.05 Fog/Mist CLR 19 19 100% 75.74 0.0
02 05:15 SE 6 6.44 Fog/Mist SCT001 18 18 100% 75.77 0.0
02 04:55 S 9 4.83 Fog/Mist SCT001 18 18 100% 75.79 0.0
02 04:35 S 6 8.05 Fog/Mist CLR 17 17 100% 75.79 0.0
02 04:15 Calm 4.83 Fog/Mist CLR 18 18 100% 75.82 0.0
02 03:55 Calm 8.05 Fog/Mist CLR 19 19 100% 75.84 0.0
02 03:35 Calm 4.83 Fog/Mist CLR 18 18 100% 75.84 0.0
02 03:15 Calm 8.05 Fog/Mist BKN016 18 18 100% 75.84 0.0
02 02:55 Calm 8.05 Fog/Mist BKN016 18 18 100% 75.84 0.0
02 02:35 Calm 6.44 Fog/Mist CLR 19 19 100% 75.84 0.0
02 02:15 Calm 8.05 Fog/Mist CLR 19 19 100% 75.87 0.0
02 01:55 Calm 8.05 Fog/Mist CLR 19 19 100% 75.9 0.0
02 01:35 Calm 8.05 Fog/Mist CLR 20 20 100% 75.9 0.0
02 01:15 Calm 8.05 Fog/Mist CLR 20 20 100% 75.92 0.0
02 00:55 Calm 8.05 Fog/Mist CLR 20 20 100% 75.92 0.0
02 00:35 Calm 8.05 Fog/Mist CLR 20 20 100% 75.92 0.0
02 00:15 Calm 8.05 Fog/Mist CLR 20 20 100% 75.92 0.0
01 23:55 Calm 11.27 Fair CLR 21 21 100% 75.9 0.0
Date Time (edt) Wind (kph) Vis. (km) Weather Sky Cond. Air Dwpt Max. Min. Relative Humidity Wind Chill (°C) Heat Index (°C) altimeter (cm) sea level (mb) 1 hr 3 hr 6 hr
6 hour
Temperature (ºC) Pressure Precipitation (cm)